Main page
METAR-TAF:

METAR-TAF

Airports :

Volk Field Air National Guard Base

Camp Douglas, Wisconsin, United States

latitude: 43-56N, longitude: 090-16W, elevation: 909 ft

Current weather observation

The report was made 1 hour and 10 minutes ago, at 23:55 UTC
Calm wind
Temperature 55°F
Humidity 16%
Pressure 30.21 in. Hg
Visibility: 10 miles
Few clouds at a height of 18000 ft

METAR: KVOK 242355Z 00000KT 10SM FEW180 13/M12 A3021 RMK AO2A SLP241 T01281124 10137 20090 55004

Time: 20:05 (01:05 UTC)

Forecast

The report was made 8 hours and 5 minutes ago, at 17:00 UTC
Forecast valid from 24 at 17 UTC to 25 at 23 UTC
Wind 7 mph from variable directions
Visibility 6.2 miles or more
Clear sky
Becoming
from 25 at 17 UTC to 25 at 18 UTC
Wind 14 mph from the South/Southeast
Visibility: 8232 ft
Clear sky

TAF: KVOK 241700Z 2417/2523 VRB06KT 9999 SKC QNH3024INS BECMG 2517/2518 15012KT 9999 SKC QNH3016INS TX12/2517Z TN01/2510Z LAST NO AMDS AFT 2501 NEXT 2509

Weather observations and forecasts of more than 4000 airports (METAR and TAF reports).

The available stations are represented by yellow and red dots on the map.

Hover mouse over dot to see the name of the station.

Then click to see weather observations and forecasts.

To change the map : click on the green buttons with a black cross to zoom in, on the green button with a dash to zoom out, or on the green arrows for adjacent maps.


METAR-TAF: